Time;durP1;ratioP1;P1;durP2;ratioP2;P2;SDS_P1;SDS_P2;PMS_P1;PMS_P2;Temp;Humidity;BMP_temperature;BMP_pressure;BME280_temperature;BME280_humidity;BME280_pressure;Samples;Min_cycle;Max_cycle;Signal;HPM_P1;HPM_P2
2022/06/10 03:27:40;;;;;;;7.38;1.42;;;18.10;69.40;;;;;;5369403;24;20060;-71
2022/06/10 03:34:15;;;;;;;6.95;1.98;;;18.10;69.40;;;;;;4720395;30;20064;-72
2022/06/10 03:36:43;;;;;;;8.43;1.60;;;18.20;69.50;;;;;;4719100;30;20057;-72
2022/06/10 03:39:09;;;;;;;7.53;1.27;;;18.20;69.60;;;;;;4720842;30;20385;-73
2022/06/10 03:42:03;;;;;;;10.80;1.88;;;18.20;69.70;;;;;;4719599;30;20053;-70
2022/06/10 03:44:31;;;;;;;6.53;1.77;;;18.20;69.60;;;;;;4705653;30;20135;-72
2022/06/10 03:46:57;;;;;;;7.28;1.83;;;18.20;69.60;;;;;;4719805;30;20088;-74
2022/06/10 03:49:35;;;;;;;8.70;2.10;;;18.30;69.60;;;;;;4720895;30;20056;-72
2022/06/10 03:52:02;;;;;;;11.10;2.03;;;18.30;69.50;;;;;;4704895;30;20053;-73
2022/06/10 03:54:27;;;;;;;7.63;1.98;;;18.30;69.40;;;;;;4709920;30;20049;-75
2022/06/10 03:56:54;;;;;;;4.97;1.40;;;18.30;69.30;;;;;;4720758;30;20057;-74
2022/06/10 03:59:20;;;;;;;7.00;1.85;;;18.30;69.20;;;;;;4700901;30;20075;-75
2022/06/10 04:01:46;;;;;;;6.43;1.90;;;18.30;69.00;;;;;;4716991;30;20053;-74
2022/06/10 04:04:12;;;;;;;7.43;2.03;;;18.30;68.90;;;;;;4720091;30;20088;-75
2022/06/10 04:06:38;;;;;;;6.00;1.52;;;18.30;68.90;;;;;;4720011;30;20060;-73
2022/06/10 04:09:05;;;;;;;10.23;2.08;;;18.30;68.70;;;;;;4717156;30;20059;-76
2022/06/10 04:11:31;;;;;;;7.82;1.90;;;18.30;68.70;;;;;;4704844;30;20049;-76
2022/06/10 04:13:57;;;;;;;7.60;1.58;;;18.30;68.60;;;;;;4720325;30;20049;-74
2022/06/10 04:16:23;;;;;;;5.53;1.52;;;18.30;68.60;;;;;;4719266;30;20065;-77
2022/06/10 04:18:51;;;;;;;8.52;2.20;;;18.30;68.50;;;;;;4720507;30;20226;-77
2022/06/10 04:21:17;;;;;;;10.00;2.30;;;18.30;68.40;;;;;;4720711;30;20049;-77
2022/06/10 04:23:46;;;;;;;5.13;1.63;;;18.30;68.50;;;;;;4720219;30;20095;-76
2022/06/10 04:26:12;;;;;;;6.35;1.35;;;18.30;68.50;;;;;;4719681;30;20426;-75
2022/06/10 04:28:38;;;;;;;6.57;1.60;;;18.30;68.50;;;;;;4729521;30;20065;-75
2022/06/10 04:31:04;;;;;;;11.30;2.58;;;18.30;68.40;;;;;;4721867;30;20381;-76
2022/06/10 04:33:33;;;;;;;7.50;1.77;;;18.30;68.40;;;;;;4737229;30;20052;-75
2022/06/10 04:35:59;;;;;;;7.50;1.80;;;18.30;68.40;;;;;;4737599;30;20083;-74
2022/06/10 04:38:27;;;;;;;5.43;1.77;;;18.30;68.30;;;;;;4737383;30;20381;-76
2022/06/10 04:40:58;;;;;;;5.07;1.60;;;18.30;68.40;;;;;;4721917;30;20067;-77
2022/06/10 04:43:24;;;;;;;8.20;1.75;;;18.30;68.30;;;;;;4736709;30;20092;-76
2022/06/10 04:45:54;;;;;;;5.38;1.63;;;18.30;68.30;;;;;;4737612;30;20095;-76
2022/06/10 04:48:19;;;;;;;6.60;1.45;;;18.30;68.40;;;;;;4737217;30;20064;-74
2022/06/10 04:50:48;;;;;;;6.20;1.70;;;18.30;68.40;;;;;;4737193;30;20128;-73
2022/06/10 04:53:15;;;;;;;10.02;1.95;;;18.30;68.40;;;;;;4736869;30;20069;-73
2022/06/10 04:55:41;;;;;;;9.18;2.28;;;18.30;68.30;;;;;;4721843;30;20553;-72
2022/06/10 04:58:07;;;;;;;6.15;1.55;;;18.30;68.40;;;;;;4736517;30;20048;-72
2022/06/10 05:00:37;;;;;;;11.75;3.53;;;18.20;68.40;;;;;;4736815;30;20057;-71
2022/06/10 05:03:04;;;;;;;5.75;1.77;;;18.20;68.90;;;;;;4737015;30;20048;-71
2022/06/10 05:05:30;;;;;;;5.57;1.83;;;18.20;69.00;;;;;;4736976;30;20052;-72
2022/06/10 05:07:56;;;;;;;9.02;2.15;;;18.20;69.10;;;;;;4736905;30;20052;-72
2022/06/10 05:10:23;;;;;;;7.40;2.00;;;18.20;69.50;;;;;;4736787;30;20064;-70
2022/06/10 05:12:50;;;;;;;12.63;2.05;;;18.20;69.70;;;;;;4721030;30;20057;-71
2022/06/10 05:15:22;;;;;;;9.00;2.10;;;18.30;70.10;;;;;;4736397;30;20088;-72
2022/06/10 05:17:49;;;;;;;8.13;1.55;;;18.30;70.60;;;;;;4737017;30;20445;-71
2022/06/10 05:20:19;;;;;;;7.22;1.77;;;18.30;70.80;;;;;;4736923;30;20107;-71
2022/06/10 05:22:45;;;;;;;7.97;2.05;;;18.30;70.60;;;;;;4736812;30;20056;-72
2022/06/10 05:25:11;;;;;;;15.25;2.30;;;18.30;70.90;;;;;;4737504;30;20060;-71
2022/06/10 05:27:38;;;;;;;17.13;1.90;;;18.40;71.30;;;;;;4736555;30;20085;-72
2022/06/10 05:30:06;;;;;;;10.57;1.40;;;18.40;71.40;;;;;;4736313;30;20587;-72
2022/06/10 05:32:32;;;;;;;10.85;1.42;;;18.40;71.60;;;;;;4736771;30;20040;-71
2022/06/10 05:34:58;;;;;;;8.48;2.28;;;18.40;71.60;;;;;;4736663;30;20057;-75
2022/06/10 05:37:26;;;;;;;9.60;1.88;;;18.40;71.50;;;;;;4736877;30;20092;-73
2022/06/10 05:39:53;;;;;;;6.97;1.60;;;18.50;71.80;;;;;;4736896;30;20055;-73
2022/06/10 05:42:19;;;;;;;9.55;2.30;;;18.50;71.70;;;;;;4736367;30;20072;-75
2022/06/10 05:44:48;;;;;;;11.32;1.88;;;18.50;71.80;;;;;;4736410;30;20496;-75
2022/06/10 05:47:20;;;;;;;6.90;2.13;;;18.50;71.80;;;;;;4735109;30;20049;-73
2022/06/10 05:49:50;;;;;;;28.10;3.90;;;18.50;71.80;;;;;;4736583;30;20088;-75
2022/06/10 05:52:18;;;;;;;11.07;2.17;;;18.50;71.70;;;;;;4737091;30;20059;-78
2022/06/10 05:54:46;;;;;;;7.43;2.53;;;18.50;71.50;;;;;;4736451;30;20095;-77
2022/06/10 05:57:13;;;;;;;14.35;2.88;;;18.50;71.50;;;;;;4736529;30;20130;-76
2022/06/10 05:59:39;;;;;;;7.43;2.38;;;18.50;71.50;;;;;;4737100;30;20056;-73
2022/06/10 06:02:08;;;;;;;10.80;2.55;;;18.50;71.60;;;;;;4720437;30;20381;-76
2022/06/10 06:04:34;;;;;;;17.30;2.72;;;18.50;71.70;;;;;;4735953;30;20087;-75
2022/06/10 06:07:00;;;;;;;12.82;2.17;;;18.50;71.70;;;;;;4736296;30;20076;-72
2022/06/10 06:09:26;;;;;;;13.02;3.17;;;18.50;71.80;;;;;;4736402;30;20469;-73
2022/06/10 06:11:57;;;;;;;20.15;3.30;;;18.40;71.70;;;;;;4735754;30;20055;-75
2022/06/10 06:14:28;;;;;;;15.93;3.20;;;18.40;71.90;;;;;;4736086;30;20052;-75
2022/06/10 06:16:57;;;;;;;14.32;2.97;;;18.50;72.10;;;;;;4736431;30;20056;-78
2022/06/10 06:19:24;;;;;;;12.52;2.72;;;18.50;72.00;;;;;;4720616;30;20063;-77
2022/06/10 06:21:50;;;;;;;13.07;2.78;;;18.50;72.00;;;;;;4735937;30;20053;-77
2022/06/10 06:24:16;;;;;;;11.10;1.83;;;18.50;71.90;;;;;;4721128;30;20056;-77
2022/06/10 06:26:42;;;;;;;9.30;2.17;;;18.50;71.80;;;;;;4736460;30;20057;-77
2022/06/10 06:29:08;;;;;;;13.82;2.45;;;18.50;71.70;;;;;;4736232;30;20125;-76
2022/06/10 06:31:34;;;;;;;10.63;2.00;;;18.50;71.50;;;;;;4736151;30;20064;-76
2022/06/10 06:34:00;;;;;;;17.48;2.28;;;18.50;71.50;;;;;;4736236;30;20052;-77
2022/06/10 06:36:28;;;;;;;8.70;2.10;;;18.50;71.30;;;;;;4735909;30;20052;-77
2022/06/10 06:38:54;;;;;;;9.48;1.70;;;18.60;71.30;;;;;;4721103;30;20053;-78
2022/06/10 06:41:21;;;;;;;6.45;1.85;;;18.60;71.20;;;;;;4739774;30;20061;-75
2022/06/10 06:43:47;;;;;;;8.10;1.80;;;18.60;71.20;;;;;;4739442;30;20061;-73
2022/06/10 06:46:16;;;;;;;6.90;1.75;;;18.60;71.10;;;;;;4722885;30;20049;-76
2022/06/10 06:48:43;;;;;;;11.82;2.92;;;18.60;71.00;;;;;;4739488;30;20057;-76
2022/06/10 06:51:09;;;;;;;5.47;1.85;;;18.60;71.10;;;;;;4739115;30;20070;-78
2022/06/10 06:53:35;;;;;;;8.45;2.28;;;18.60;71.20;;;;;;4723009;30;20060;-77
2022/06/10 06:56:02;;;;;;;7.60;1.77;;;18.60;71.30;;;;;;4738337;30;20049;-76
2022/06/10 06:58:28;;;;;;;4.68;1.92;;;18.60;71.40;;;;;;4723168;30;20096;-78
2022/06/10 07:00:55;;;;;;;5.20;2.33;;;18.50;71.50;;;;;;4723138;30;20056;-78
2022/06/10 07:03:21;;;;;;;4.68;2.70;;;18.50;72.00;;;;;;4723303;30;20365;-74
2022/06/10 07:05:49;;;;;;;5.32;2.50;;;18.50;72.50;;;;;;4738672;30;20044;-75
2022/06/10 07:08:15;;;;;;;10.43;3.08;;;18.50;73.30;;;;;;4738522;30;20536;-74
2022/06/10 07:10:41;;;;;;;5.53;3.00;;;18.40;73.70;;;;;;4723289;30;20064;-75
2022/06/10 07:13:07;;;;;;;7.18;3.15;;;18.40;74.00;;;;;;4738727;30;20381;-75
2022/06/10 07:15:33;;;;;;;4.15;2.80;;;18.30;74.20;;;;;;4739433;30;20072;-77
2022/06/10 07:18:00;;;;;;;5.65;2.90;;;18.30;74.40;;;;;;4739304;30;20087;-78
2022/06/10 07:20:33;;;;;;;5.68;2.90;;;18.30;74.50;;;;;;4738474;30;20061;-77
2022/06/10 07:22:59;;;;;;;3.97;2.22;;;18.30;74.60;;;;;;4748327;30;20417;-76
2022/06/10 07:25:27;;;;;;;4.35;2.42;;;18.30;74.60;;;;;;4740541;30;20052;-75
2022/06/10 07:27:55;;;;;;;6.45;2.72;;;18.30;74.50;;;;;;4755851;30;20060;-79
2022/06/10 07:30:23;;;;;;;4.97;2.28;;;18.40;74.60;;;;;;4755901;30;20060;-78
2022/06/10 07:32:49;;;;;;;2.90;1.85;;;18.40;74.50;;;;;;4756157;30;20099;-79
2022/06/10 07:35:17;;;;;;;9.15;2.40;;;18.40;74.40;;;;;;4745579;30;20072;-77
2022/06/10 07:37:42;;;;;;;5.28;1.90;;;18.50;74.40;;;;;;4738338;30;20061;-79
2022/06/10 07:41:56;;;;;;;4.22;1.77;;;18.40;74.20;;;;;;4723787;30;20057;-77
2022/06/10 07:42:55;;;;;;;5.53;1.77;;;18.40;74.10;;;;;;4722938;30;20100;-78
2022/06/10 07:45:21;;;;;;;5.30;1.75;;;18.50;74.00;;;;;;4737853;30;20072;-78
2022/06/10 07:47:47;;;;;;;4.50;1.70;;;18.50;73.90;;;;;;4723409;30;20065;-79
2022/06/10 07:50:12;;;;;;;4.15;1.73;;;18.50;73.90;;;;;;4722988;30;20048;-78
2022/06/10 07:52:38;;;;;;;3.50;1.80;;;18.50;73.80;;;;;;4738312;30;20052;-76
2022/06/10 07:55:04;;;;;;;4.28;1.77;;;18.50;73.80;;;;;;4737864;30;20397;-78
2022/06/10 07:57:30;;;;;;;3.15;1.50;;;18.50;73.80;;;;;;4737752;30;20090;-77
2022/06/10 07:59:56;;;;;;;4.78;1.77;;;18.50;73.80;;;;;;4737593;30;20515;-80
2022/06/10 08:02:23;;;;;;;3.47;1.95;;;18.50;74.30;;;;;;4737736;30;20346;-77
2022/06/10 08:04:48;;;;;;;3.30;1.67;;;18.50;73.70;;;;;;4737683;30;20056;-77
2022/06/10 08:07:14;;;;;;;4.68;1.73;;;18.50;73.70;;;;;;4737698;30;20430;-79
2022/06/10 08:09:40;;;;;;;5.82;1.70;;;18.60;73.60;;;;;;4737118;30;20057;-77
2022/06/10 08:12:06;;;;;;;3.75;1.50;;;18.60;73.50;;;;;;4721857;30;20064;-77
2022/06/10 08:14:31;;;;;;;4.15;1.70;;;18.60;73.50;;;;;;4722858;30;20053;-78
2022/06/10 08:16:59;;;;;;;3.47;1.67;;;18.60;73.50;;;;;;4737705;30;20060;-79
2022/06/10 08:19:25;;;;;;;4.47;2.00;;;18.60;73.50;;;;;;4737352;30;20053;-82
2022/06/10 08:24:35;;;;;;;13.55;2.88;;;18.60;73.20;;;;;;4735385;30;20139;-77
2022/06/10 08:27:01;;;;;;;14.73;2.70;;;18.60;73.20;;;;;;4736749;30;20148;-79
2022/06/10 08:29:27;;;;;;;28.67;3.85;;;18.60;73.20;;;;;;4723109;30;20115;-77
2022/06/10 08:31:53;;;;;;;14.30;2.42;;;18.70;73.20;;;;;;4754658;30;20467;-79
2022/06/10 08:34:19;;;;;;;15.77;2.35;;;18.60;73.10;;;;;;4755100;30;20135;-77
2022/06/10 08:36:46;;;;;;;17.73;3.50;;;18.60;73.10;;;;;;4754256;30;20062;-79
2022/06/10 08:39:12;;;;;;;9.77;2.42;;;18.70;73.10;;;;;;4747172;30;20052;-79
2022/06/10 08:42:11;;;;;;;16.17;3.03;;;18.60;73.10;;;;;;4737216;30;20143;-79
2022/06/10 08:44:39;;;;;;;6.28;2.40;;;18.60;73.00;;;;;;4737507;30;20064;-78
2022/06/10 08:47:11;;;;;;;14.80;2.67;;;18.70;73.10;;;;;;4722123;30;20119;-77
2022/06/10 08:49:56;;;;;;;13.63;2.25;;;18.60;73.00;;;;;;4737397;30;20049;-78
2022/06/10 08:52:42;;;;;;;13.30;2.38;;;18.60;72.90;;;;;;4736008;30;20068;-79
2022/06/10 08:55:32;;;;;;;11.27;2.55;;;18.60;72.80;;;;;;4735897;30;20048;-80
2022/06/10 08:58:21;;;;;;;10.88;2.17;;;18.60;72.80;;;;;;4719651;30;20056;-79
2022/06/10 09:00:51;;;;;;;9.60;2.50;;;18.60;72.80;;;;;;4736030;30;20044;-81
2022/06/10 09:03:23;;;;;;;17.42;2.47;;;18.70;72.80;;;;;;4735560;30;20049;-82
2022/06/10 09:05:57;;;;;;;12.30;1.92;;;18.60;72.60;;;;;;4718967;30;20067;-79
2022/06/10 09:08:35;;;;;;;5.72;1.75;;;18.60;72.50;;;;;;4721463;30;20071;-78
2022/06/10 09:11:28;;;;;;;11.75;2.65;;;18.60;72.60;;;;;;4721730;30;20465;-79
2022/06/10 09:14:00;;;;;;;7.30;2.10;;;18.60;72.50;;;;;;4734949;30;20508;-79
2022/06/10 09:16:47;;;;;;;8.20;2.17;;;18.60;72.50;;;;;;4738385;30;20063;-79
2022/06/10 09:19:19;;;;;;;7.97;2.15;;;18.60;72.40;;;;;;4753839;30;20066;-78
2022/06/10 09:22:14;;;;;;;6.30;2.22;;;18.60;72.40;;;;;;4752991;30;20059;-79
2022/06/10 09:24:52;;;;;;;6.85;2.20;;;18.60;72.40;;;;;;4717259;30;20063;-79
2022/06/10 09:27:28;;;;;;;5.45;2.08;;;18.70;72.40;;;;;;4717567;30;20052;-78
2022/06/10 09:29:57;;;;;;;6.38;2.33;;;18.70;72.30;;;;;;4703660;30;20440;-78
2022/06/10 09:32:56;;;;;;;4.13;1.80;;;18.70;72.30;;;;;;4719112;30;20057;-78
2022/06/10 09:35:51;;;;;;;4.72;2.15;;;18.70;72.20;;;;;;4722696;30;20051;-79
2022/06/10 09:38:34;;;;;;;5.55;2.10;;;18.70;72.10;;;;;;4754092;30;20135;-79
2022/06/10 09:41:47;;;;;;;4.20;1.87;;;18.70;72.20;;;;;;4754399;30;20060;-77
2022/06/10 09:44:39;;;;;;;6.40;2.15;;;18.70;72.10;;;;;;4722525;30;20068;-78
2022/06/10 09:47:37;;;;;;;5.38;2.17;;;18.70;72.20;;;;;;4753562;30;20118;-78
2022/06/10 09:50:55;;;;;;;3.70;1.90;;;18.70;72.10;;;;;;4737564;30;20558;-79
2022/06/10 09:53:42;;;;;;;3.83;2.35;;;18.70;72.00;;;;;;4681438;30;20042;-77
2022/06/10 09:56:45;;;;;;;5.75;2.08;;;18.70;72.00;;;;;;4681850;30;20133;-78
2022/06/10 09:59:41;;;;;;;6.82;2.17;;;18.70;72.00;;;;;;4744372;30;20095;-78
2022/06/10 10:02:23;;;;;;;5.90;2.40;;;18.70;72.00;;;;;;4728101;30;20138;-78
2022/06/10 10:05:02;;;;;;;5.50;1.80;;;18.70;72.60;;;;;;4737837;30;20095;-79
2022/06/10 10:07:50;;;;;;;5.93;2.95;;;18.70;72.10;;;;;;4753636;30;20114;-78
2022/06/10 10:10:22;;;;;;;6.18;2.75;;;18.70;71.90;;;;;;4751976;30;20048;-78
2022/06/10 10:13:12;;;;;;;4.30;2.17;;;18.70;71.90;;;;;;4753906;30;20088;-79
2022/06/10 10:15:50;;;;;;;5.45;2.30;;;18.70;71.90;;;;;;4756558;30;20056;-78
2022/06/10 10:18:37;;;;;;;5.53;2.55;;;18.70;71.90;;;;;;4741859;30;20052;-77
2022/06/10 10:21:11;;;;;;;3.45;2.28;;;18.70;71.90;;;;;;4741291;30;20056;-79
2022/06/10 10:23:42;;;;;;;5.20;2.25;;;18.70;71.90;;;;;;4756198;30;20132;-78
2022/06/10 10:26:36;;;;;;;4.00;2.08;;;18.70;71.90;;;;;;4736198;30;20105;-79
2022/06/10 10:29:11;;;;;;;3.83;1.98;;;18.70;71.80;;;;;;4734309;30;20064;-76
2022/06/10 10:31:44;;;;;;;4.15;2.20;;;18.70;71.80;;;;;;4739010;30;20067;-78
2022/06/10 10:34:25;;;;;;;8.98;2.35;;;18.70;71.90;;;;;;4739378;30;20063;-78
2022/06/10 10:36:55;;;;;;;6.38;2.38;;;18.70;71.90;;;;;;4739376;30;20057;-77
2022/06/10 10:39:29;;;;;;;5.95;2.35;;;18.70;71.90;;;;;;4739606;30;20048;-79
2022/06/10 10:42:01;;;;;;;3.97;2.70;;;18.70;71.80;;;;;;4739202;30;20082;-78
2022/06/10 10:44:56;;;;;;;4.82;2.33;;;18.70;71.80;;;;;;4723920;30;20057;-77
2022/06/10 10:47:25;;;;;;;4.43;2.58;;;18.70;71.80;;;;;;4739722;30;20135;-78
2022/06/10 10:50:03;;;;;;;3.35;2.10;;;18.70;71.80;;;;;;4739406;30;20056;-79
2022/06/10 10:52:36;;;;;;;4.03;2.30;;;18.70;71.80;;;;;;4738921;30;20543;-78
2022/06/10 10:55:21;;;;;;;6.82;2.58;;;18.70;71.90;;;;;;4739188;30;20061;-78
2022/06/10 10:57:52;;;;;;;3.22;2.35;;;18.70;71.90;;;;;;4753428;30;20068;-74
2022/06/10 11:00:18;;;;;;;7.15;3.67;;;18.80;71.90;;;;;;4737609;30;20091;-78
2022/06/10 11:02:51;;;;;;;3.47;2.42;;;18.70;72.50;;;;;;4738606;30;20045;-77
2022/06/10 11:05:47;;;;;;;8.45;3.88;;;18.70;72.40;;;;;;4737850;30;20064;-76
2022/06/10 11:08:17;;;;;;;6.07;3.38;;;18.80;72.60;;;;;;4738030;30;20045;-78
2022/06/10 11:11:03;;;;;;;5.10;3.50;;;18.80;72.70;;;;;;4739536;30;20056;-77
2022/06/10 11:13:52;;;;;;;5.00;3.35;;;18.80;72.50;;;;;;4743873;30;20084;-78
2022/06/10 11:16:23;;;;;;;5.97;3.40;;;18.70;72.50;;;;;;4707399;30;20061;-79
2022/06/10 11:18:51;;;;;;;7.10;2.97;;;18.70;72.70;;;;;;4739075;30;20060;-80
2022/06/10 11:21:17;;;;;;;7.03;3.47;;;18.80;72.30;;;;;;4724088;30;20057;-76
2022/06/10 11:23:54;;;;;;;9.85;3.97;;;18.70;72.40;;;;;;4738583;30;20063;-76
2022/06/10 11:26:22;;;;;;;7.05;3.78;;;18.80;73.10;;;;;;4733740;30;20059;-75
2022/06/10 11:28:58;;;;;;;7.35;4.05;;;18.70;73.70;;;;;;4738122;30;20071;-75
2022/06/10 11:31:40;;;;;;;8.35;4.00;;;18.80;74.80;;;;;;4738215;30;20135;-75
2022/06/10 11:34:38;;;;;;;7.30;2.95;;;18.80;75.40;;;;;;4737947;30;20102;-75
2022/06/10 11:37:41;;;;;;;6.57;3.60;;;18.90;74.10;;;;;;4735646;30;20421;-73
2022/06/10 11:40:22;;;;;;;6.30;3.30;;;18.90;75.20;;;;;;4738329;30;20222;-76
2022/06/10 11:43:05;;;;;;;9.15;3.60;;;18.90;75.10;;;;;;4739156;30;20334;-74
2022/06/10 11:45:53;;;;;;;7.63;3.20;;;18.90;74.40;;;;;;4738200;30;20056;-76
2022/06/10 11:48:43;;;;;;;7.50;3.47;;;18.90;74.70;;;;;;4737619;30;20465;-75
2022/06/10 11:51:17;;;;;;;5.63;2.95;;;19.00;74.20;;;;;;4755661;30;20141;-75
2022/06/10 11:54:01;;;;;;;8.43;3.33;;;19.00;74.30;;;;;;4756226;30;20147;-74
2022/06/10 11:59:59;;;;;;;6.05;3.25;;;18.90;74.10;;;;;;4755445;30;20113;-76
2022/06/10 12:02:38;;;;;;;6.97;3.25;;;18.90;74.20;;;;;;4733758;30;20163;-76
2022/06/10 12:05:23;;;;;;;5.80;2.85;;;18.90;74.40;;;;;;4739901;30;20517;-74
2022/06/10 12:08:13;;;;;;;3.80;2.83;;;18.90;74.40;;;;;;4756086;30;20078;-76
2022/06/10 12:11:21;;;;;;;6.43;3.22;;;19.00;74.50;;;;;;4755631;30;20052;-75
2022/06/10 12:14:00;;;;;;;7.55;3.33;;;18.90;74.50;;;;;;4755208;30;20364;-75
2022/06/10 12:16:30;;;;;;;6.65;3.00;;;19.00;74.60;;;;;;4752074;30;20062;-75
2022/06/10 12:18:57;;;;;;;5.00;2.70;;;19.00;74.60;;;;;;4752410;30;20082;-74
2022/06/10 12:21:25;;;;;;;5.13;3.10;;;18.90;74.50;;;;;;4754460;30;20062;-75
2022/06/10 12:23:52;;;;;;;6.68;2.70;;;19.00;74.30;;;;;;4739628;30;20064;-75
2022/06/10 12:26:46;;;;;;;6.28;3.25;;;19.00;74.40;;;;;;4755125;30;20396;-75
2022/06/10 12:29:17;;;;;;;7.00;2.85;;;19.00;74.30;;;;;;4754815;30;20067;-75
2022/06/10 12:32:10;;;;;;;7.38;2.92;;;19.00;74.40;;;;;;4749275;30;20053;-76
2022/06/10 12:35:01;;;;;;;18.27;3.70;;;19.00;74.20;;;;;;4736933;30;20060;-75
2022/06/10 12:37:40;;;;;;;20.67;4.30;;;19.00;74.10;;;;;;4721386;30;20052;-75
2022/06/10 12:40:37;;;;;;;14.13;3.75;;;19.00;74.30;;;;;;4721602;30;20066;-78
2022/06/10 12:43:17;;;;;;;17.25;3.20;;;19.00;74.30;;;;;;4736142;30;20052;-77
2022/06/10 12:46:28;;;;;;;15.93;3.50;;;19.10;74.70;;;;;;4735791;30;20048;-77
2022/06/10 12:48:55;;;;;;;12.13;3.00;;;19.10;74.60;;;;;;4735995;30;20167;-77
2022/06/10 12:51:38;;;;;;;16.83;3.35;;;19.10;74.90;;;;;;4743205;30;20162;-75
2022/06/10 12:54:24;;;;;;;18.77;3.75;;;19.10;74.70;;;;;;4722325;30;20057;-75
2022/06/10 12:57:23;;;;;;;12.50;2.75;;;19.10;74.50;;;;;;4735839;30;20056;-76
2022/06/10 12:59:49;;;;;;;9.32;3.30;;;19.10;74.30;;;;;;4743280;30;20380;-76
2022/06/10 13:05:50;;;;;;;14.52;2.28;;;19.10;74.30;;;;;;4766191;30;20067;-77
2022/06/10 13:08:31;;;;;;;7.10;2.80;;;19.20;74.30;;;;;;4772284;30;20084;-75
2022/06/10 13:10:58;;;;;;;6.22;2.50;;;19.20;74.00;;;;;;4772267;30;20052;-76
2022/06/10 13:13:24;;;;;;;15.75;2.63;;;19.20;74.00;;;;;;4772190;30;20048;-76
2022/06/10 13:15:53;;;;;;;12.20;2.38;;;19.20;73.80;;;;;;4772009;30;20066;-76
2022/06/10 13:18:19;;;;;;;8.38;1.98;;;19.20;73.60;;;;;;4748932;30;20056;-74
2022/06/10 13:20:49;;;;;;;7.20;1.85;;;19.20;73.50;;;;;;4736879;30;20135;-76
2022/06/10 13:23:22;;;;;;;10.20;2.50;;;19.20;73.50;;;;;;4737264;30;20053;-76
2022/06/10 13:26:12;;;;;;;9.43;2.95;;;19.20;73.20;;;;;;4736648;30;20469;-75
2022/06/10 13:28:42;;;;;;;8.60;2.80;;;19.20;72.70;;;;;;4734115;30;20075;-76
2022/06/10 13:31:18;;;;;;;6.90;2.00;;;19.20;72.60;;;;;;4737082;30;20330;-76
2022/06/10 13:34:02;;;;;;;8.48;2.40;;;19.20;72.20;;;;;;4736441;30;20064;-76
2022/06/10 13:36:37;;;;;;;9.13;2.10;;;19.20;71.90;;;;;;4721243;30;20064;-76
2022/06/10 13:39:06;;;;;;;4.53;2.15;;;19.30;71.90;;;;;;4736527;30;20052;-76
2022/06/10 13:41:50;;;;;;;5.97;2.35;;;19.20;71.80;;;;;;4736677;30;20092;-76
2022/06/10 13:44:39;;;;;;;9.60;2.35;;;19.20;71.80;;;;;;4736804;30;20057;-76
2022/06/10 13:47:26;;;;;;;5.90;2.30;;;19.30;71.60;;;;;;4721008;30;20061;-76
2022/06/10 13:52:37;;;;;;;4.90;2.40;;;19.30;71.60;;;;;;4740228;30;20479;-75
2022/06/10 13:55:18;;;;;;;5.53;2.05;;;19.30;71.70;;;;;;4739592;30;20472;-76
2022/06/10 13:57:45;;;;;;;6.70;2.13;;;19.30;71.50;;;;;;4740010;30;20060;-76
2022/06/10 14:00:21;;;;;;;6.25;1.95;;;19.30;72.00;;;;;;4740249;30;20053;-77
2022/06/10 14:02:48;;;;;;;6.50;2.70;;;19.30;71.10;;;;;;4748731;30;20076;-76
2022/06/10 14:05:20;;;;;;;4.25;1.92;;;19.30;71.10;;;;;;4775204;30;20067;-76
2022/06/10 14:07:47;;;;;;;4.57;2.13;;;19.30;70.80;;;;;;4775220;30;20063;-75
2022/06/10 14:10:42;;;;;;;5.97;2.38;;;19.30;70.80;;;;;;4775179;30;20136;-76
2022/06/10 14:13:18;;;;;;;6.63;2.53;;;19.30;70.80;;;;;;4775371;30;20441;-77
2022/06/10 14:15:53;;;;;;;6.82;2.60;;;19.30;70.70;;;;;;4775069;30;20067;-76
2022/06/10 14:18:24;;;;;;;7.10;2.13;;;19.30;71.10;;;;;;4775584;30;20433;-76
2022/06/10 14:20:55;;;;;;;6.68;1.90;;;19.30;71.40;;;;;;4789387;30;20456;-72
2022/06/10 14:23:25;;;;;;;7.53;2.10;;;19.30;71.60;;;;;;4775205;30;20177;-75
2022/06/10 14:26:23;;;;;;;7.97;2.53;;;19.30;72.00;;;;;;4774931;30;20533;-78
2022/06/10 14:28:49;;;;;;;7.50;2.70;;;19.30;72.00;;;;;;4769032;30;20099;-74
2022/06/10 14:31:31;;;;;;;6.57;2.30;;;19.30;72.70;;;;;;4759896;30;20059;-75
2022/06/10 14:33:59;;;;;;;9.55;3.42;;;19.30;72.90;;;;;;4774993;30;20102;-80
2022/06/10 14:36:28;;;;;;;8.80;4.28;;;19.40;73.20;;;;;;4774973;30;20130;-76
2022/06/10 14:39:23;;;;;;;9.63;4.75;;;19.40;74.60;;;;;;4774800;30;20060;-75
2022/06/10 14:42:00;;;;;;;7.18;4.70;;;19.40;75.60;;;;;;4759015;30;20056;-74
2022/06/10 14:44:53;;;;;;;12.82;5.55;;;19.40;75.60;;;;;;4774488;30;20143;-74
2022/06/10 14:47:23;;;;;;;14.02;6.05;;;19.50;75.20;;;;;;4774573;30;20107;-76
2022/06/10 14:50:15;;;;;;;9.35;4.15;;;19.50;76.10;;;;;;4774628;30;20147;-76
2022/06/10 14:52:51;;;;;;;14.25;6.50;;;19.50;75.60;;;;;;4788600;30;20056;-75
2022/06/10 14:55:24;;;;;;;11.63;5.20;;;19.50;76.90;;;;;;4774454;30;20055;-75
2022/06/10 14:57:58;;;;;;;14.23;5.68;;;19.60;77.60;;;;;;4774367;30;20066;-78
2022/06/10 15:00:27;;;;;;;11.70;4.95;;;19.60;79.10;;;;;;4756745;30;20070;-74
2022/06/10 15:02:53;;;;;;;15.38;5.53;;;19.60;78.20;;;;;;4774810;30;20052;-76
2022/06/10 15:08:07;;;;;;;11.50;4.18;;;19.70;78.10;;;;;;4774565;30;20604;-75
2022/06/10 15:10:37;;;;;;;12.55;4.65;;;19.70;77.60;;;;;;4774352;30;20368;-74
2022/06/10 15:13:03;;;;;;;15.27;4.80;;;19.80;76.80;;;;;;4774319;30;20063;-77
2022/06/10 15:15:28;;;;;;;17.67;3.85;;;19.80;76.80;;;;;;4763873;30;20056;-76
2022/06/10 15:17:54;;;;;;;12.48;4.50;;;19.80;76.20;;;;;;4740876;30;20056;-75
2022/06/10 15:20:20;;;;;;;12.95;4.22;;;19.80;75.20;;;;;;4756611;30;20048;-73
2022/06/10 15:22:50;;;;;;;19.30;4.43;;;19.80;74.10;;;;;;4741102;30;20452;-80
2022/06/10 15:25:27;;;;;;;12.80;4.10;;;19.80;74.50;;;;;;4756609;30;20063;-75
2022/06/10 15:27:54;;;;;;;17.52;4.53;;;19.80;73.80;;;;;;4740895;30;20052;-74
2022/06/10 15:30:24;;;;;;;10.60;3.53;;;19.90;73.50;;;;;;4740578;30;20060;-75
2022/06/10 15:32:50;;;;;;;12.57;4.13;;;19.90;72.90;;;;;;4756136;30;20044;-77
2022/06/10 15:41:10;;;;;;;11.75;3.83;;;19.90;72.60;;;;;;4760472;30;20137;-75
2022/06/10 15:43:36;;;;;;;14.15;3.67;;;19.90;71.70;;;;;;4723593;30;20144;-75
2022/06/10 15:46:09;;;;;;;13.82;3.40;;;19.90;71.80;;;;;;4749488;30;20063;-75
2022/06/10 15:48:36;;;;;;;13.65;3.38;;;20.00;71.50;;;;;;4773732;30;20063;-75
2022/06/10 15:51:03;;;;;;;19.10;4.13;;;20.00;71.40;;;;;;4757724;30;20133;-74
2022/06/10 15:53:30;;;;;;;14.70;3.92;;;20.00;71.70;;;;;;4773527;30;20051;-74
2022/06/10 15:58:43;;;;;;;14.18;3.47;;;20.00;71.30;;;;;;4755700;30;20061;-75
2022/06/10 16:01:12;;;;;;;16.50;4.05;;;20.00;70.30;;;;;;4755744;30;20440;-73
2022/06/10 16:03:38;;;;;;;14.45;3.53;;;20.00;70.20;;;;;;4774165;30;20066;-74
2022/06/10 16:06:04;;;;;;;7.93;2.75;;;20.00;70.50;;;;;;4791374;30;20059;-76
2022/06/10 16:08:31;;;;;;;8.50;3.05;;;20.00;70.30;;;;;;4791968;30;20134;-75
2022/06/10 16:10:58;;;;;;;13.48;3.03;;;20.00;70.60;;;;;;4791291;30;20051;-72
2022/06/10 16:13:28;;;;;;;17.85;3.08;;;20.00;70.50;;;;;;4759464;30;20065;-74
2022/06/10 16:15:59;;;;;;;20.33;4.80;;;20.00;71.50;;;;;;4773173;30;20371;-76
2022/06/10 16:18:37;;;;;;;13.32;3.65;;;20.00;71.60;;;;;;4773330;30;20056;-74
2022/06/10 16:21:05;;;;;;;16.92;3.50;;;20.10;70.60;;;;;;4773385;30;20059;-74
2022/06/10 16:23:34;;;;;;;12.88;2.78;;;20.10;70.10;;;;;;4787762;30;20364;-75
2022/06/10 16:26:04;;;;;;;11.30;3.05;;;20.10;69.60;;;;;;4790896;30;20047;-75
2022/06/10 16:28:47;;;;;;;9.38;2.92;;;20.10;69.10;;;;;;4791075;30;20051;-75
2022/06/10 16:31:19;;;;;;;13.32;2.80;;;20.10;68.90;;;;;;4790937;30;20336;-74
2022/06/10 16:33:45;;;;;;;14.13;3.00;;;20.10;68.70;;;;;;4773965;30;20139;-74
2022/06/10 16:36:14;;;;;;;11.68;2.60;;;20.20;68.60;;;;;;4772950;30;20060;-75
2022/06/10 16:38:41;;;;;;;15.02;3.33;;;20.20;69.00;;;;;;4773371;30;20058;-76
2022/06/10 16:41:26;;;;;;;9.88;2.38;;;20.10;69.20;;;;;;4757109;30;20560;-75
2022/06/10 16:43:53;;;;;;;9.85;2.33;;;20.20;69.30;;;;;;4789735;30;20043;-74
2022/06/10 16:46:22;;;;;;;9.68;2.30;;;20.20;69.20;;;;;;4791124;30;20062;-75
2022/06/10 16:48:48;;;;;;;10.10;2.80;;;20.10;69.90;;;;;;4775147;30;20059;-78
2022/06/10 16:51:15;;;;;;;9.55;2.55;;;20.20;70.20;;;;;;4790499;30;20052;-79
2022/06/10 16:53:42;;;;;;;14.23;2.60;;;20.10;70.20;;;;;;4773678;30;20401;-77
2022/06/10 16:56:21;;;;;;;15.93;2.95;;;20.10;70.30;;;;;;4772879;30;20055;-78
2022/06/10 16:58:50;;;;;;;12.15;2.50;;;20.10;70.20;;;;;;4742267;30;20095;-77
2022/06/10 17:01:18;;;;;;;6.38;2.50;;;20.10;70.40;;;;;;4772404;30;20067;-77
2022/06/10 17:03:45;;;;;;;10.30;2.38;;;20.10;70.50;;;;;;4787042;30;20051;-77
2022/06/10 17:06:13;;;;;;;9.98;2.15;;;20.10;70.60;;;;;;4790856;30;20166;-77
2022/06/10 17:08:39;;;;;;;9.85;2.50;;;20.10;70.60;;;;;;4774920;30;20448;-78